Terminal Aerodrome Forecast
Issued by NWS

Home | Current Version | Previous Version | Graphics & Text | Print | Product List | Glossary On
Versions: 1 2 3 4 5 6 7 8 9 10 11 12 13 14 15 16
210
FTUS43 KICT 300548 AAA
TAFHUT
TAF AMD
KHUT 300548Z 3006/3106 33017G25KT 5SM -DZ BR OVC008
     FM301100 33018G26KT P6SM -DZ OVC008
     FM301500 33017KT P6SM OVC010
     FM302200 33012KT P6SM OVC025
     FM310100 35008KT P6SM SCT035=

USA.gov is the U.S. government's official web portal to all federal, state and local government web resources and services.